createdAt,value
2023-02-02T00:03:47.589Z,3.07
2023-02-02T00:08:44.092Z,3.90
2023-02-02T00:13:40.505Z,3.17
2023-02-02T00:18:36.820Z,3.60
2023-02-02T00:23:33.287Z,2.63
2023-02-02T00:28:29.623Z,3.22
2023-02-02T00:33:25.968Z,2.17
2023-02-02T00:38:22.487Z,2.58
2023-02-02T00:43:18.890Z,2.35
2023-02-02T00:48:15.518Z,2.55
2023-02-02T00:53:11.847Z,2.15
2023-02-02T00:58:08.219Z,1.73
2023-02-02T01:03:06.969Z,2.38
2023-02-02T01:08:03.800Z,3.58
2023-02-02T01:13:00.251Z,2.80
2023-02-02T01:17:57.403Z,3.95
2023-02-02T01:22:53.805Z,2.15
2023-02-02T01:27:50.150Z,1.70
2023-02-02T01:32:46.535Z,2.22
2023-02-02T01:37:42.869Z,2.45
2023-02-02T01:42:39.177Z,3.20
2023-02-02T01:47:47.615Z,2.30
2023-02-02T01:52:48.734Z,2.78
2023-02-02T01:57:51.791Z,1.90
2023-02-02T02:02:49.247Z,2.50
2023-02-02T02:07:49.116Z,1.95
2023-02-02T02:12:48.146Z,2.63
2023-02-02T02:18:21.491Z,2.58
2023-02-02T02:24:09.523Z,1.88
2023-02-02T02:29:27.383Z,2.65
2023-02-02T02:34:47.942Z,1.73
2023-02-02T02:40:16.591Z,2.45
2023-02-02T02:45:14.128Z,1.83
2023-02-02T02:50:11.593Z,1.55
2023-02-02T02:55:10.982Z,1.33
2023-02-02T03:00:48.113Z,1.52
2023-02-02T03:05:47.495Z,2.15
2023-02-02T03:10:45.954Z,1.45
2023-02-02T03:15:44.322Z,1.75
2023-02-02T03:20:43.553Z,1.55
2023-02-02T03:25:40.168Z,1.70
2023-02-02T03:30:38.199Z,2.13
2023-02-02T03:35:34.653Z,1.77
2023-02-02T03:40:31.060Z,2.30
2023-02-02T03:45:28.499Z,2.55
2023-02-02T03:50:25.505Z,1.98
2023-02-02T03:55:22.245Z,1.98
2023-02-02T04:00:19.165Z,2.25
2023-02-02T04:05:15.726Z,2.70
2023-02-02T04:10:12.181Z,2.33
2023-02-02T04:15:09.157Z,1.90
2023-02-02T04:20:06.721Z,2.03
2023-02-02T04:25:03.721Z,2.83
2023-02-02T04:30:00.182Z,2.33
2023-02-02T04:34:56.589Z,2.50
2023-02-02T04:39:55.269Z,2.63
2023-02-02T04:44:51.629Z,3.28
2023-02-02T04:49:47.942Z,2.88
2023-02-02T04:54:44.331Z,2.13
2023-02-02T04:59:42.495Z,2.50
2023-02-02T05:04:39.103Z,1.40
2023-02-02T05:09:35.488Z,2.20
2023-02-02T05:14:31.867Z,3.17
2023-02-02T05:19:28.215Z,1.95
2023-02-02T05:24:24.649Z,3.38
2023-02-02T05:29:20.992Z,3.25
2023-02-02T05:34:17.418Z,2.03
2023-02-02T05:39:13.781Z,1.75
2023-02-02T05:44:13.471Z,1.60
2023-02-02T05:49:13.838Z,1.52
2023-02-02T05:54:10.370Z,1.52
2023-02-02T05:59:07.503Z,1.88
2023-02-02T06:04:04.008Z,1.65
2023-02-02T06:09:00.367Z,3.13
2023-02-02T06:13:56.953Z,1.23
2023-02-02T06:18:53.958Z,1.45
2023-02-02T06:23:51.458Z,1.50
2023-02-02T06:28:49.705Z,1.10
2023-02-02T06:33:47.345Z,1.13
2023-02-02T06:38:44.230Z,0.90
2023-02-02T06:43:40.560Z,1.00
2023-02-02T06:48:36.989Z,0.55
2023-02-02T06:53:34.363Z,1.05
2023-02-02T06:58:31.663Z,1.05
2023-02-02T07:03:27.998Z,0.57
2023-02-02T07:08:24.379Z,1.00
2023-02-02T07:13:20.780Z,1.30
2023-02-02T07:18:17.353Z,0.80
2023-02-02T07:23:13.718Z,0.70
2023-02-02T07:28:10.021Z,0.73
2023-02-02T07:33:06.336Z,0.98
2023-02-02T07:38:03.054Z,0.82
2023-02-02T07:43:00.995Z,1.38
2023-02-02T07:47:58.452Z,1.00
2023-02-02T07:52:55.162Z,2.22
2023-02-02T07:57:54.307Z,1.52
2023-02-02T08:02:50.954Z,1.60
2023-02-02T08:07:48.257Z,1.40
2023-02-02T08:12:44.723Z,1.77
2023-02-02T08:17:45.542Z,1.95
2023-02-02T08:22:42.109Z,1.65
2023-02-02T08:27:38.468Z,1.80
2023-02-02T08:32:34.798Z,2.10
2023-02-02T08:37:31.174Z,1.50
2023-02-02T08:42:27.525Z,1.65
2023-02-02T08:47:23.947Z,1.30
2023-02-02T08:52:20.579Z,1.48
2023-02-02T08:57:17.222Z,1.70
2023-02-02T09:02:17.906Z,1.60
2023-02-02T09:07:14.262Z,1.83
2023-02-02T09:12:10.818Z,1.40
2023-02-02T09:17:07.134Z,1.65
2023-02-02T09:22:03.701Z,1.38
2023-02-02T09:27:00.118Z,1.35
2023-02-02T09:31:56.699Z,1.35
2023-02-02T09:36:54.259Z,2.47
2023-02-02T09:42:18.304Z,1.30
2023-02-02T09:47:32.762Z,1.40
2023-02-02T09:52:36.522Z,3.55
2023-02-02T09:57:49.896Z,3.28
2023-02-02T10:02:50.051Z,3.35
2023-02-02T10:07:51.467Z,3.42
2023-02-02T10:12:51.957Z,2.58
2023-02-02T10:17:57.441Z,3.42
2023-02-02T10:22:57.709Z,1.83
2023-02-02T10:28:07.063Z,2.50
2023-02-02T10:33:16.534Z,1.85
2023-02-02T10:38:37.915Z,1.40
2023-02-02T10:43:57.343Z,2.05
2023-02-02T10:49:13.138Z,1.17
2023-02-02T10:54:28.969Z,2.35
2023-02-02T10:59:32.267Z,2.13
2023-02-02T11:04:48.163Z,2.38
2023-02-02T11:09:44.479Z,1.70
2023-02-02T11:14:47.084Z,2.72
2023-02-02T11:19:43.428Z,1.75
2023-02-02T11:24:46.302Z,2.03
2023-02-02T11:29:47.992Z,2.35
2023-02-02T11:34:44.345Z,1.90
2023-02-02T11:39:42.149Z,2.45
2023-02-02T11:44:40.271Z,1.60
2023-02-02T11:49:43.589Z,1.63
2023-02-02T11:54:40.949Z,2.03
2023-02-02T11:59:39.320Z,1.42
2023-02-02T12:04:35.926Z,1.70
2023-02-02T12:09:32.383Z,3.10
2023-02-02T12:14:55.024Z,2.45
2023-02-02T12:20:31.427Z,3.05
2023-02-02T12:25:39.990Z,2.50
2023-02-02T12:30:52.836Z,2.13
2023-02-02T12:36:23.607Z,2.80
2023-02-02T12:41:45.582Z,2.10
2023-02-02T12:46:52.650Z,2.17
2023-02-02T12:51:59.191Z,2.30
2023-02-02T12:57:04.772Z,1.95
2023-02-02T13:02:08.663Z,2.20
2023-02-02T13:07:25.082Z,2.90
2023-02-02T13:12:24.713Z,2.92
2023-02-02T13:17:36.258Z,3.25
2023-02-02T13:22:39.053Z,3.97
2023-02-02T13:27:38.421Z,3.30
2023-02-02T13:32:40.147Z,3.42
2023-02-02T13:37:39.634Z,3.40
2023-02-02T13:42:48.626Z,6.15
2023-02-02T13:47:55.781Z,4.18
2023-02-02T13:53:02.811Z,4.85
2023-02-02T13:58:22.456Z,4.25
2023-02-02T14:03:40.549Z,3.42
2023-02-02T14:08:42.823Z,5.40
2023-02-02T14:14:04.021Z,5.75
2023-02-02T14:19:02.486Z,4.72
2023-02-02T14:24:22.870Z,4.80
2023-02-02T14:29:39.669Z,4.78
2023-02-02T14:34:40.902Z,4.35
2023-02-02T14:39:48.927Z,4.43
2023-02-02T14:45:07.852Z,4.77
2023-02-02T14:50:04.484Z,3.85
2023-02-02T14:55:01.079Z,3.50
2023-02-02T15:00:01.098Z,4.10
2023-02-02T15:05:28.907Z,3.75
2023-02-02T15:10:56.732Z,4.15
2023-02-02T15:16:07.721Z,5.13
2023-02-02T15:21:07.622Z,5.18
2023-02-02T15:26:13.128Z,5.40
2023-02-02T15:31:22.770Z,5.65
2023-02-02T15:36:26.913Z,4.80
2023-02-02T15:41:32.685Z,4.95
2023-02-02T15:46:33.350Z,4.50
2023-02-02T15:51:30.219Z,4.82
2023-02-02T15:56:29.862Z,5.07
2023-02-02T16:01:30.244Z,5.85
2023-02-02T16:06:28.351Z,5.35
2023-02-02T16:11:24.820Z,5.17
2023-02-02T16:16:27.940Z,5.15
2023-02-02T16:21:26.804Z,5.95
2023-02-02T16:26:27.881Z,4.93
2023-02-02T16:31:25.160Z,5.68
2023-02-02T16:36:26.003Z,5.80
2023-02-02T16:41:32.900Z,5.38
2023-02-02T16:46:48.755Z,5.47
2023-02-02T16:51:48.445Z,6.40
2023-02-02T16:56:48.578Z,7.13
2023-02-02T17:01:52.177Z,8.65
2023-02-02T17:06:52.902Z,10.77
2023-02-02T17:12:03.542Z,11.80
2023-02-02T17:17:01.765Z,12.73
2023-02-02T17:22:01.382Z,8.85
2023-02-02T17:26:58.060Z,11.80
2023-02-02T17:31:54.578Z,9.18
2023-02-02T17:36:51.129Z,9.05
2023-02-02T17:41:48.487Z,8.02
2023-02-02T17:46:45.377Z,8.63
2023-02-02T17:51:43.306Z,7.75
2023-02-02T17:56:40.666Z,6.20
2023-02-02T18:01:41.370Z,7.78
2023-02-02T18:06:38.266Z,8.35
2023-02-02T18:11:34.649Z,8.50
2023-02-02T18:16:31.132Z,9.43
2023-02-02T18:21:27.494Z,9.32
2023-02-02T18:26:23.835Z,10.00
2023-02-02T18:31:21.471Z,10.75
2023-02-02T18:36:20.636Z,11.15
2023-02-02T18:41:18.206Z,11.65
2023-02-02T18:46:16.228Z,11.82
2023-02-02T18:51:16.014Z,11.07
2023-02-02T18:56:13.964Z,10.88
2023-02-02T19:01:16.515Z,13.37
2023-02-02T19:06:31.316Z,13.35
2023-02-02T19:11:34.859Z,13.27
2023-02-02T19:16:33.805Z,12.85
2023-02-02T19:21:30.718Z,14.25
2023-02-02T19:26:28.001Z,13.25
2023-02-02T19:31:24.540Z,14.05
2023-02-02T19:36:27.441Z,14.65
2023-02-02T19:41:25.764Z,13.23
2023-02-02T19:46:26.133Z,11.50
2023-02-02T19:51:34.682Z,14.07
2023-02-02T19:56:37.953Z,13.60
2023-02-02T20:01:35.284Z,13.25
2023-02-02T20:06:32.165Z,12.05
2023-02-02T20:11:35.518Z,12.35
2023-02-02T20:16:43.115Z,11.65
2023-02-02T20:21:43.912Z,13.57
2023-02-02T20:26:40.250Z,13.20
2023-02-02T20:31:38.263Z,14.13
2023-02-02T20:36:40.905Z,13.85
2023-02-02T20:41:37.216Z,14.75
2023-02-02T20:46:33.510Z,15.75
2023-02-02T20:51:29.817Z,17.20
2023-02-02T20:56:26.299Z,17.10
2023-02-02T21:01:23.401Z,18.98
2023-02-02T21:06:20.044Z,20.65
2023-02-02T21:11:16.317Z,21.38
2023-02-02T21:16:12.595Z,22.65
2023-02-02T21:21:08.966Z,23.38
2023-02-02T21:26:05.263Z,24.65
2023-02-02T21:31:01.611Z,23.80
2023-02-02T21:36:20.437Z,24.95
2023-02-02T21:41:16.734Z,27.10
2023-02-02T21:46:29.419Z,28.17
2023-02-02T21:51:32.877Z,29.67
2023-02-02T21:56:39.093Z,27.00
2023-02-02T22:01:39.411Z,28.17
2023-02-02T22:06:36.606Z,28.40
2023-02-02T22:11:45.483Z,27.63
2023-02-02T22:16:48.599Z,28.10
2023-02-02T22:21:44.914Z,28.85
2023-02-02T22:26:41.754Z,26.60
2023-02-02T22:31:38.172Z,27.27
2023-02-02T22:36:34.628Z,28.05
2023-02-02T22:41:31.008Z,29.35
2023-02-02T22:46:27.465Z,26.27
2023-02-02T22:51:23.805Z,26.00
2023-02-02T22:56:20.114Z,27.52
2023-02-02T23:01:17.070Z,27.23
2023-02-02T23:06:13.374Z,24.20
2023-02-02T23:11:09.677Z,22.98
2023-02-02T23:16:06.984Z,23.13
2023-02-02T23:21:03.509Z,25.70
2023-02-02T23:25:59.872Z,22.60
2023-02-02T23:30:59.091Z,23.40
2023-02-02T23:35:55.505Z,21.83
2023-02-02T23:40:51.817Z,21.15
2023-02-02T23:45:49.087Z,21.60
2023-02-02T23:50:46.826Z,19.88
2023-02-02T23:55:43.855Z,19.38
